Time;durP1;ratioP1;P1;durP2;ratioP2;P2;SDS_P1;SDS_P2;PMS_P1;PMS_P2;Temp;Humidity;BMP_temperature;BMP_pressure;BME280_temperature;BME280_humidity;BME280_pressure;Samples;Min_cycle;Max_cycle;Signal;HPM_P1;HPM_P2
2023/04/22 00:00:43;;;;;;;;;;;;;;;16.51;48.01;100525.34;5017538;28;1145;-42
2023/04/22 00:03:09;;;;;;;;;;;;;;;16.74;48.11;100519.22;5028212;28;1120;-45
2023/04/22 00:05:34;;;;;;;;;;;;;;;16.77;48.20;100524.19;5017316;28;1155;-44
2023/04/22 00:08:00;;;;;;;;;;;;;;;16.55;47.76;100521.78;5017275;28;1136;-44
2023/04/22 00:10:26;;;;;;;;;;;;;;;18.04;46.79;100531.09;5017305;28;1032;-44
2023/04/22 00:12:51;;;;;;;;;;;;;;;16.78;48.66;100519.50;5017313;28;1163;-44
2023/04/22 00:15:20;;;;;;;;;;;;;;;16.58;47.59;100510.25;5021853;28;1017;-44
2023/04/22 00:17:46;;;;;;;;;;;;;;;17.38;47.92;100522.22;5016870;28;1902;-43
2023/04/22 00:20:12;;;;;;;;;;;;;;;16.61;48.45;100519.84;5017407;28;1182;-43
2023/04/22 00:22:37;;;;;;;;;;;;;;;16.42;47.72;100523.22;5024113;28;1242;-46
2023/04/22 00:25:03;;;;;;;;;;;;;;;16.27;47.06;100523.25;5016837;28;1146;-43
2023/04/22 00:27:28;;;;;;;;;;;;;;;17.50;47.38;100524.63;5028385;28;887;-46
2023/04/22 00:29:54;;;;;;;;;;;;;;;16.59;48.16;100522.88;5015907;28;1269;-43
2023/04/22 00:32:21;;;;;;;;;;;;;;;17.52;47.61;100527.09;5016588;28;1218;-43
2023/04/22 00:34:46;;;;;;;;;;;;;;;17.54;47.78;100528.44;5016931;28;1047;-44
2023/04/22 00:37:12;;;;;;;;;;;;;;;16.89;48.23;100517.56;5016840;28;1108;-45
2023/04/22 00:39:38;;;;;;;;;;;;;;;16.62;47.54;100521.50;5021984;28;1906;-43
2023/04/22 00:42:04;;;;;;;;;;;;;;;16.49;46.64;100522.06;5015658;28;1570;-47
2023/04/22 00:44:29;;;;;;;;;;;;;;;17.39;47.92;100525.78;5031223;28;1257;-48
2023/04/22 00:46:55;;;;;;;;;;;;;;;16.71;48.21;100519.78;5016551;28;1123;-45
2023/04/22 00:49:21;;;;;;;;;;;;;;;16.46;47.71;100517.16;5016625;28;1142;-48
2023/04/22 00:51:46;;;;;;;;;;;;;;;16.33;47.00;100524.88;5028104;28;1133;-45
2023/04/22 00:54:12;;;;;;;;;;;;;;;16.25;46.09;100519.94;5016705;28;1063;-43
2023/04/22 00:56:37;;;;;;;;;;;;;;;16.86;47.64;100510.69;5016067;28;1067;-45
2023/04/22 00:59:03;;;;;;;;;;;;;;;16.38;47.46;100515.78;5016228;28;1906;-44
2023/04/22 01:01:29;;;;;;;;;;;;;;;16.28;46.56;100522.13;5017165;28;1222;-46
2023/04/22 01:03:55;;;;;;;;;;;;;;;16.96;47.67;100518.09;5023123;28;1050;-43
2023/04/22 01:06:20;;;;;;;;;;;;;;;16.30;47.72;100516.34;4999108;28;1604;-44
2023/04/22 01:08:46;;;;;;;;;;;;;;;16.91;47.87;100531.81;5016602;28;1186;-45
2023/04/22 01:11:13;;;;;;;;;;;;;;;16.62;48.27;100526.16;5015022;28;987;-44
2023/04/22 01:13:38;;;;;;;;;;;;;;;16.34;47.61;100515.53;5015962;28;1417;-45
2023/04/22 01:16:04;;;;;;;;;;;;;;;16.26;46.89;100513.34;5016254;28;1124;-47
2023/04/22 01:18:31;;;;;;;;;;;;;;;16.62;47.29;100504.19;5014624;28;1983;-43
2023/04/22 01:20:56;;;;;;;;;;;;;;;16.77;47.74;100509.63;5015822;28;1111;-45
2023/04/22 01:23:22;;;;;;;;;;;;;;;16.37;47.55;100505.94;5021625;28;1231;-44
2023/04/22 01:25:48;;;;;;;;;;;;;;;17.51;46.88;100508.94;5017110;28;1524;-43
2023/04/22 01:28:13;;;;;;;;;;;;;;;16.57;47.92;100502.28;5021934;28;1194;-46
2023/04/22 01:30:39;;;;;;;;;;;;;;;16.73;48.46;100506.63;5016478;28;1107;-42
2023/04/22 01:33:06;;;;;;;;;;;;;;;17.19;48.06;100502.00;5014823;28;1159;-48
2023/04/22 01:35:35;;;;;;;;;;;;;;;16.60;48.02;100505.28;5016312;28;1124;-45
2023/04/22 01:38:04;;;;;;;;;;;;;;;16.45;47.12;100504.53;5016770;28;1977;-44
2023/04/22 01:40:30;;;;;;;;;;;;;;;17.33;47.63;100503.00;5015962;28;1178;-49
2023/04/22 01:42:57;;;;;;;;;;;;;;;16.68;47.76;100511.31;5015955;28;1047;-43
2023/04/22 01:45:22;;;;;;;;;;;;;;;17.67;47.49;100504.97;5016142;28;1191;-43
2023/04/22 01:47:48;;;;;;;;;;;;;;;17.52;47.66;100499.59;5014063;28;1178;-48
2023/04/22 01:50:13;;;;;;;;;;;;;;;16.78;48.39;100508.53;5008361;28;1000;-47
2023/04/22 01:52:39;;;;;;;;;;;;;;;16.58;47.53;100503.94;5020472;28;1246;-48
2023/04/22 01:55:06;;;;;;;;;;;;;;;16.34;47.14;100504.56;5024813;28;1020;-48
2023/04/22 01:57:31;;;;;;;;;;;;;;;16.29;46.35;100492.78;5022287;28;1143;-44
2023/04/22 01:59:57;;;;;;;;;;;;;;;17.34;47.41;100499.16;5018811;28;1911;-46
2023/04/22 02:02:22;;;;;;;;;;;;;;;16.55;47.83;100499.00;5023573;28;1206;-44
2023/04/22 02:04:48;;;;;;;;;;;;;;;17.50;47.54;100505.41;5019619;28;1118;-48
2023/04/22 02:07:14;;;;;;;;;;;;;;;17.54;48.10;100511.13;5019894;28;1151;-44
2023/04/22 02:09:39;;;;;;;;;;;;;;;16.73;48.38;100501.13;5019650;28;1043;-46
2023/04/22 02:12:05;;;;;;;;;;;;;;;16.57;47.42;100494.06;5019684;28;1194;-44
2023/04/22 02:14:30;;;;;;;;;;;;;;;16.31;46.96;100498.78;5032600;28;1156;-45
2023/04/22 02:17:02;;;;;;;;;;;;;;;16.31;46.26;100496.88;5023734;28;1331;-42
2023/04/22 02:19:27;;;;;;;;;;;;;;;17.10;47.78;100510.03;5019484;28;1977;-45
2023/04/22 02:21:54;;;;;;;;;;;;;;;16.42;48.00;100506.75;5025647;28;1226;-44
2023/04/22 02:24:20;;;;;;;;;;;;;;;16.19;47.43;100510.09;5017705;28;1950;-47
2023/04/22 02:26:46;;;;;;;;;;;;;;;16.18;46.60;100511.19;5023465;28;1011;-46
2023/04/22 02:29:12;;;;;;;;;;;;;;;17.51;47.07;100511.69;5018204;28;1378;-46
2023/04/22 02:31:37;;;;;;;;;;;;;;;16.68;48.05;100508.56;5017366;28;1140;-47
2023/04/22 02:34:03;;;;;;;;;;;;;;;16.34;47.63;100510.06;5019734;28;1206;-48
2023/04/22 02:36:28;;;;;;;;;;;;;;;17.20;47.57;100512.72;5019269;28;1139;-45
2023/04/22 02:38:54;;;;;;;;;;;;;;;16.72;48.16;100504.16;5023303;28;1914;-47
2023/04/22 02:41:20;;;;;;;;;;;;;;;17.24;47.83;100507.50;5021080;28;1214;-46
2023/04/22 02:43:46;;;;;;;;;;;;;;;17.88;47.40;100507.53;5017540;28;1374;-46
2023/04/22 02:46:12;;;;;;;;;;;;;;;16.88;48.37;100508.50;5015084;28;1175;-45
2023/04/22 02:48:39;;;;;;;;;;;;;;;16.57;47.78;100496.81;5001639;28;1201;-46
2023/04/22 02:51:05;;;;;;;;;;;;;;;16.41;47.04;100510.56;5024316;28;1087;-44
2023/04/22 02:53:31;;;;;;;;;;;;;;;17.16;48.02;100514.38;5017736;28;1142;-45
2023/04/22 02:55:57;;;;;;;;;;;;;;;16.62;48.24;100516.00;5018685;28;1127;-44
2023/04/22 02:58:23;;;;;;;;;;;;;;;16.37;47.54;100520.47;5017644;28;1918;-45
2023/04/22 03:00:48;;;;;;;;;;;;;;;17.02;47.53;100508.69;5018180;28;1246;-46
2023/04/22 03:03:14;;;;;;;;;;;;;;;16.60;48.07;100512.72;5024707;28;1227;-45
2023/04/22 03:05:40;;;;;;;;;;;;;;;16.34;47.18;100509.22;5022944;28;1261;-45
2023/04/22 03:08:05;;;;;;;;;;;;;;;17.50;46.95;100516.38;5016347;28;1115;-48
2023/04/22 03:10:31;;;;;;;;;;;;;;;16.60;47.88;100504.47;5017302;28;1125;-47
2023/04/22 03:12:57;;;;;;;;;;;;;;;16.30;47.67;100506.22;5017358;28;1538;-47
2023/04/22 03:15:23;;;;;;;;;;;;;;;16.21;46.91;100511.44;5023147;28;2083;-45
2023/04/22 03:17:48;;;;;;;;;;;;;;;16.08;46.32;100506.53;5033612;28;1969;-48
2023/04/22 03:20:15;;;;;;;;;;;;;;;17.49;46.70;100511.16;5017151;28;1147;-47
2023/04/22 03:22:41;;;;;;;;;;;;;;;16.65;47.71;100515.44;5008123;28;1313;-48
2023/04/22 03:25:09;;;;;;;;;;;;;;;16.21;47.40;100519.66;5017045;28;1111;-47
2023/04/22 03:27:35;;;;;;;;;;;;;;;16.17;46.69;100504.88;5017768;28;1180;-49
2023/04/22 03:30:00;;;;;;;;;;;;;;;16.06;46.91;100519.69;5030752;28;1114;-46
2023/04/22 03:32:26;;;;;;;;;;;;;;;17.09;47.40;100514.69;5018798;28;1071;-47
2023/04/22 03:35:07;;;;;;;;;;;;;;;16.30;47.89;100522.69;5016881;28;1291;-50
2023/04/22 03:37:32;;;;;;;;;;;;;;;17.17;47.57;100528.97;5018125;28;1020;-53
2023/04/22 03:39:58;;;;;;;;;;;;;;;16.74;47.92;100538.44;5016576;28;1967;-49
2023/04/22 03:42:23;;;;;;;;;;;;;;;16.36;47.94;100534.47;5016643;28;1181;-47
2023/04/22 03:44:50;;;;;;;;;;;;;;;16.71;48.03;100539.00;5015863;28;1909;-49
2023/04/22 03:47:20;;;;;;;;;;;;;;;16.67;48.11;100539.88;5016845;28;1207;-47
2023/04/22 03:49:51;;;;;;;;;;;;;;;16.36;47.53;100550.94;5016291;28;1632;-49
2023/04/22 03:52:17;;;;;;;;;;;;;;;16.16;46.88;100551.75;5017361;28;1076;-46
2023/04/22 03:54:49;;;;;;;;;;;;;;;16.14;46.84;100551.22;5016382;28;1201;-52
2023/04/22 03:57:15;;;;;;;;;;;;;;;16.58;47.76;100561.59;5016481;28;1142;-48
2023/04/22 03:59:40;;;;;;;;;;;;;;;16.23;47.39;100569.59;5016200;28;1902;-48
2023/04/22 04:02:07;;;;;;;;;;;;;;;16.80;47.70;100579.63;5015717;28;1087;-48
2023/04/22 04:04:33;;;;;;;;;;;;;;;16.67;48.03;100578.31;5026536;28;1048;-49
2023/04/22 04:07:00;;;;;;;;;;;;;;;16.18;47.78;100579.75;5016604;28;1111;-49
2023/04/22 04:09:26;;;;;;;;;;;;;;;17.53;47.27;100580.94;5016768;28;1102;-50
2023/04/22 04:11:52;;;;;;;;;;;;;;;16.60;47.96;100579.41;5015475;28;1509;-48
2023/04/22 04:14:17;;;;;;;;;;;;;;;16.24;47.77;100584.97;5016256;28;1031;-45
2023/04/22 04:16:47;;;;;;;;;;;;;;;16.13;47.05;100593.47;5019577;28;1150;-47
2023/04/22 04:19:21;;;;;;;;;;;;;;;16.03;46.42;100586.91;5015509;28;2004;-53
2023/04/22 04:21:46;;;;;;;;;;;;;;;16.60;47.16;100595.06;5023312;28;1147;-50
2023/04/22 04:24:12;;;;;;;;;;;;;;;16.39;47.80;100603.31;5014155;28;1151;-54
2023/04/22 04:26:42;;;;;;;;;;;;;;;15.99;47.50;100601.41;5005685;28;1278;-50
2023/04/22 04:29:12;;;;;;;;;;;;;;;16.84;47.63;100600.75;5024738;28;1288;-51
2023/04/22 04:31:41;;;;;;;;;;;;;;;16.14;48.18;100606.09;5015803;28;1172;-48
2023/04/22 04:34:07;;;;;;;;;;;;;;;16.12;47.57;100609.13;5015943;28;1163;-53
2023/04/22 04:36:35;;;;;;;;;;;;;;;16.85;47.57;100613.38;5015967;28;1513;-50
2023/04/22 04:39:27;;;;;;;;;;;;;;;16.55;48.44;100615.13;5017118;28;1902;-53
2023/04/22 04:41:54;;;;;;;;;;;;;;;18.14;46.39;100623.72;5016768;28;1408;-54
2023/04/22 04:44:21;;;;;;;;;;;;;;;16.87;48.52;100622.19;5015194;28;1245;-53
2023/04/22 04:46:49;;;;;;;;;;;;;;;16.58;47.66;100633.78;5014907;28;1352;-53
2023/04/22 04:49:15;;;;;;;;;;;;;;;16.29;47.26;100639.00;5016547;28;1068;-50
2023/04/22 04:51:53;;;;;;;;;;;;;;;16.19;46.57;100639.03;5020602;28;1095;-52
2023/04/22 04:54:19;;;;;;;;;;;;;;;15.97;46.31;100647.50;5018563;28;1188;-49
2023/04/22 04:56:45;;;;;;;;;;;;;;;17.09;47.27;100652.06;5015228;28;1201;-47
2023/04/22 04:59:10;;;;;;;;;;;;;;;16.38;47.94;100653.84;5021393;28;1975;-46
2023/04/22 05:01:37;;;;;;;;;;;;;;;16.40;48.10;100656.31;5015331;28;1199;-50
2023/04/22 05:04:07;;;;;;;;;;;;;;;16.75;48.36;100665.59;5017779;28;1151;-50
2023/04/22 05:06:33;;;;;;;;;;;;;;;17.45;46.99;100659.34;5014439;28;1389;-48
2023/04/22 05:09:03;;;;;;;;;;;;;;;16.86;48.12;100666.41;5014600;28;1264;-47
2023/04/22 05:11:29;;;;;;;;;;;;;;;16.52;49.19;100661.50;5015276;28;1152;-48
2023/04/22 05:13:56;;;;;;;;;;;;;;;16.33;49.44;100656.56;5014611;28;1159;-50
2023/04/22 05:16:30;;;;;;;;;;;;;;;16.18;50.00;100659.31;5023754;28;1373;-53
2023/04/22 05:18:55;;;;;;;;;;;;;;;16.06;50.22;100660.41;5011228;28;1914;-52
2023/04/22 05:21:22;;;;;;;;;;;;;;;15.90;50.79;100661.47;5027356;28;1214;-50
2023/04/22 05:23:48;;;;;;;;;;;;;;;15.83;50.95;100669.97;5016041;28;1941;-50
2023/04/22 05:26:13;;;;;;;;;;;;;;;15.71;51.09;100666.59;5014503;28;1297;-52
2023/04/22 05:28:41;;;;;;;;;;;;;;;15.98;50.65;100676.59;5013979;28;1401;-49
2023/04/22 05:31:06;;;;;;;;;;;;;;;17.34;47.31;100669.56;5017725;28;1160;-51
2023/04/22 05:33:32;;;;;;;;;;;;;;;16.45;49.58;100674.69;5018816;28;1155;-50
2023/04/22 05:35:58;;;;;;;;;;;;;;;16.08;50.63;100665.63;5018708;28;1111;-46
2023/04/22 05:38:24;;;;;;;;;;;;;;;15.90;50.85;100672.44;5015464;28;1989;-49
2023/04/22 05:40:50;;;;;;;;;;;;;;;15.80;51.20;100677.91;5053672;28;1465;-52
2023/04/22 05:43:16;;;;;;;;;;;;;;;16.98;48.34;100675.19;5019580;28;1150;-51
2023/04/22 05:45:46;;;;;;;;;;;;;;;16.96;48.26;100673.81;5018705;28;1268;-53
2023/04/22 05:48:14;;;;;;;;;;;;;;;16.37;50.05;100679.63;5018139;28;1321;-51
2023/04/22 05:50:48;;;;;;;;;;;;;;;16.05;50.57;100683.44;5018173;28;1431;-48
2023/04/22 05:53:14;;;;;;;;;;;;;;;15.95;50.83;100693.56;5024874;28;925;-53
2023/04/22 05:55:41;;;;;;;;;;;;;;;16.19;50.69;100683.72;5018434;28;1282;-49
2023/04/22 05:58:08;;;;;;;;;;;;;;;17.51;47.14;100693.13;5017727;28;1906;-53
2023/04/22 06:00:43;;;;;;;;;;;;;;;16.52;49.61;100691.69;5018467;28;1281;-52
2023/04/22 06:03:29;;;;;;;;;;;;;;;16.19;50.33;100691.16;5018526;28;1341;-48
2023/04/22 06:05:55;;;;;;;;;;;;;;;16.59;49.72;100692.22;5032460;28;1277;-48
2023/04/22 06:08:20;;;;;;;;;;;;;;;17.32;47.54;100701.19;5019224;28;1162;-50
2023/04/22 06:10:49;;;;;;;;;;;;;;;16.52;49.78;100703.50;5019315;28;1084;-55
2023/04/22 06:13:15;;;;;;;;;;;;;;;16.21;50.62;100702.66;5017813;28;1234;-50
2023/04/22 06:15:40;;;;;;;;;;;;;;;16.02;51.09;100705.94;5018237;28;1126;-51
2023/04/22 06:18:06;;;;;;;;;;;;;;;15.89;51.46;100707.28;5023174;28;1918;-49
2023/04/22 06:20:31;;;;;;;;;;;;;;;15.99;51.19;100705.63;5047255;28;1280;-51
2023/04/22 06:22:57;;;;;;;;;;;;;;;17.48;47.45;100705.53;5025203;28;1329;-52
2023/04/22 06:25:24;;;;;;;;;;;;;;;16.67;49.57;100705.41;5019251;28;1075;-50
2023/04/22 06:27:50;;;;;;;;;;;;;;;16.26;50.57;100699.94;5017507;28;1341;-53
2023/04/22 06:30:16;;;;;;;;;;;;;;;16.04;51.20;100700.16;5019500;28;1400;-53
2023/04/22 06:32:41;;;;;;;;;;;;;;;15.85;51.59;100705.31;5017724;28;1163;-50
2023/04/22 06:35:07;;;;;;;;;;;;;;;16.43;50.27;100707.91;5017471;28;1207;-51
2023/04/22 06:37:33;;;;;;;;;;;;;;;17.02;48.60;100703.72;5017102;28;1084;-52
2023/04/22 06:39:59;;;;;;;;;;;;;;;16.35;50.26;100698.28;5017082;28;1985;-49
2023/04/22 06:42:45;;;;;;;;;;;;;;;16.01;51.12;100707.03;5027994;28;1004;-53
2023/04/22 06:45:29;;;;;;;;;;;;;;;15.83;51.53;100713.03;5018626;28;1097;-51
2023/04/22 06:48:14;;;;;;;;;;;;;;;16.17;51.08;100718.00;5018352;28;1169;-50
2023/04/22 06:51:02;;;;;;;;;;;;;;;17.36;48.10;100705.00;5018372;28;1230;-50
2023/04/22 06:53:31;;;;;;;;;;;;;;;16.44;50.35;100712.28;5023369;28;1270;-54
2023/04/22 06:55:56;;;;;;;;;;;;;;;16.08;51.11;100718.56;5018994;28;1202;-50
2023/04/22 06:58:22;;;;;;;;;;;;;;;15.92;51.68;100716.84;5016641;28;2055;-53
2023/04/22 07:00:48;;;;;;;;;;;;;;;15.84;52.05;100720.16;5016909;28;1176;-50
2023/04/22 07:03:14;;;;;;;;;;;;;;;17.34;48.24;100718.22;5017580;28;1276;-49
2023/04/22 07:05:40;;;;;;;;;;;;;;;16.97;48.90;100714.75;5027958;28;1229;-47
2023/04/22 07:08:06;;;;;;;;;;;;;;;16.39;50.61;100721.31;5017366;28;1261;-54
2023/04/22 07:10:32;;;;;;;;;;;;;;;16.19;51.10;100719.41;5017892;28;1036;-50
2023/04/22 07:13:27;;;;;;;;;;;;;;;15.94;51.54;100720.19;5004888;28;1688;-52
2023/04/22 07:15:53;;;;;;;;;;;;;;;15.97;51.83;100725.09;5018159;28;1126;-51
2023/04/22 07:18:18;;;;;;;;;;;;;;;17.47;47.94;100723.09;5023065;28;1898;-51
2023/04/22 07:20:44;;;;;;;;;;;;;;;16.67;50.04;100723.81;5017312;28;1161;-51
2023/04/22 07:23:09;;;;;;;;;;;;;;;16.21;50.96;100730.09;5026704;28;1198;-52
2023/04/22 07:25:35;;;;;;;;;;;;;;;16.04;51.45;100738.56;5017886;28;1076;-51
2023/04/22 07:28:00;;;;;;;;;;;;;;;15.91;51.73;100731.69;5017912;28;1019;-48
2023/04/22 07:30:26;;;;;;;;;;;;;;;16.69;50.29;100749.91;5033675;28;1135;-49
2023/04/22 07:32:52;;;;;;;;;;;;;;;17.17;48.85;100746.03;5037525;28;1042;-49
2023/04/22 07:35:17;;;;;;;;;;;;;;;16.40;50.79;100739.44;5036958;28;1102;-51
2023/04/22 07:37:42;;;;;;;;;;;;;;;16.14;51.23;100749.56;5037639;28;1070;-52
2023/04/22 07:40:10;;;;;;;;;;;;;;;16.67;50.29;100738.34;5020079;28;1906;-49
2023/04/22 07:42:37;;;;;;;;;;;;;;;17.53;47.92;100743.16;5017240;28;899;-45
2023/04/22 07:45:03;;;;;;;;;;;;;;;16.68;50.16;100756.47;5017315;28;1290;-48
2023/04/22 07:47:28;;;;;;;;;;;;;;;16.36;50.76;100760.31;5017387;28;1067;-48
2023/04/22 07:49:54;;;;;;;;;;;;;;;16.17;51.37;100750.94;5017007;28;1141;-46
2023/04/22 07:52:19;;;;;;;;;;;;;;;15.98;51.65;100751.44;5017513;28;1027;-47
2023/04/22 07:54:45;;;;;;;;;;;;;;;15.85;52.28;100760.16;5017079;28;892;-50
2023/04/22 07:57:10;;;;;;;;;;;;;;;16.71;50.34;100766.91;5017153;28;1152;-47
2023/04/22 07:59:36;;;;;;;;;;;;;;;17.16;48.99;100755.38;5017477;28;1976;-48
2023/04/22 08:02:01;;;;;;;;;;;;;;;16.41;50.82;100764.97;5017896;28;1043;-51
2023/04/22 08:04:27;;;;;;;;;;;;;;;16.11;51.67;100769.31;5017238;28;1135;-49
2023/04/22 08:06:53;;;;;;;;;;;;;;;15.96;51.87;100764.59;5024096;28;836;-51
2023/04/22 08:09:19;;;;;;;;;;;;;;;16.01;52.08;100775.59;5017381;28;1092;-52
2023/04/22 08:11:44;;;;;;;;;;;;;;;17.52;48.12;100763.53;5017217;28;1076;-53
2023/04/22 08:14:10;;;;;;;;;;;;;;;16.88;49.50;100765.81;5017414;28;1161;-49
2023/04/22 08:16:36;;;;;;;;;;;;;;;16.45;50.97;100765.25;5017169;28;1067;-44
2023/04/22 08:19:02;;;;;;;;;;;;;;;16.18;51.48;100756.16;5017450;28;1981;-53
2023/04/22 08:21:27;;;;;;;;;;;;;;;16.05;51.77;100759.44;5021899;28;1122;-48
2023/04/22 08:23:53;;;;;;;;;;;;;;;15.87;52.08;100753.31;5020086;28;1024;-54
2023/04/22 08:26:19;;;;;;;;;;;;;;;17.08;49.53;100760.34;5016698;28;1135;-51
2023/04/22 08:28:45;;;;;;;;;;;;;;;16.94;49.54;100753.75;5016880;28;1099;-53
2023/04/22 08:31:11;;;;;;;;;;;;;;;16.34;51.02;100751.53;5025931;28;829;-52
2023/04/22 08:33:38;;;;;;;;;;;;;;;16.12;51.65;100750.91;5016399;28;1055;-51
2023/04/22 08:36:03;;;;;;;;;;;;;;;16.90;50.08;100752.66;5016850;28;1106;-49
2023/04/22 08:38:29;;;;;;;;;;;;;;;17.47;48.35;100752.53;5015478;28;1977;-49
2023/04/22 08:40:55;;;;;;;;;;;;;;;16.71;50.28;100749.63;5016435;28;1040;-48
2023/04/22 08:43:20;;;;;;;;;;;;;;;16.32;51.13;100750.97;5018490;28;1407;-52
2023/04/22 08:45:46;;;;;;;;;;;;;;;16.18;51.63;100744.38;5015120;28;1213;-52
2023/04/22 08:48:11;;;;;;;;;;;;;;;16.01;52.02;100742.69;5014874;28;1131;-52
2023/04/22 08:50:40;;;;;;;;;;;;;;;15.89;52.36;100744.84;5016564;28;1039;-51
2023/04/22 08:53:05;;;;;;;;;;;;;;;16.08;51.91;100754.22;5016499;28;1145;-50
2023/04/22 08:55:31;;;;;;;;;;;;;;;17.55;48.11;100740.97;5026422;28;1062;-49
2023/04/22 08:57:58;;;;;;;;;;;;;;;16.62;50.55;100746.59;5016532;28;1122;-50
2023/04/22 09:00:23;;;;;;;;;;;;;;;16.29;51.36;100737.78;5015498;28;1910;-53
2023/04/22 09:02:49;;;;;;;;;;;;;;;16.10;51.61;100742.97;5015557;28;1196;-51
2023/04/22 09:05:14;;;;;;;;;;;;;;;15.94;52.29;100742.13;5015649;28;1135;-52
2023/04/22 09:07:40;;;;;;;;;;;;;;;16.74;50.53;100755.38;5017880;28;1067;-48
2023/04/22 09:10:07;;;;;;;;;;;;;;;17.09;49.14;100750.97;5016741;28;1186;-49
2023/04/22 09:12:32;;;;;;;;;;;;;;;16.38;51.19;100757.28;5016136;28;1031;-50
2023/04/22 09:14:58;;;;;;;;;;;;;;;16.16;51.89;100749.28;5015709;28;1127;-49
2023/04/22 09:17:30;;;;;;;;;;;;;;;16.00;52.10;100751.19;5017209;28;1230;-44
2023/04/22 09:19:59;;;;;;;;;;;;;;;16.83;50.27;100744.69;5035439;28;1906;-51
2023/04/22 09:22:25;;;;;;;;;;;;;;;17.17;49.14;100744.09;5028102;28;1019;-51
2023/04/22 09:24:51;;;;;;;;;;;;;;;16.48;51.08;100740.84;5035627;28;1042;-51
2023/04/22 09:27:17;;;;;;;;;;;;;;;16.19;51.55;100748.75;5008275;28;1016;-51
2023/04/22 09:29:49;;;;;;;;;;;;;;;16.04;52.07;100752.28;5035194;28;1083;-53
2023/04/22 09:32:14;;;;;;;;;;;;;;;15.92;52.16;100744.28;5022773;28;1119;-51
2023/04/22 09:34:52;;;;;;;;;;;;;;;16.52;51.15;100730.13;5035751;28;1039;-50
2023/04/22 09:37:20;;;;;;;;;;;;;;;17.22;49.01;100740.50;5014282;28;1148;-50
2023/04/22 09:39:47;;;;;;;;;;;;;;;16.46;51.00;100737.53;5011153;28;1993;-49
2023/04/22 09:42:12;;;;;;;;;;;;;;;16.29;51.69;100726.81;5020483;28;1130;-51
2023/04/22 09:44:38;;;;;;;;;;;;;;;17.66;48.17;100720.56;5029055;28;1027;-51
2023/04/22 09:47:04;;;;;;;;;;;;;;;16.74;50.51;100738.09;5026832;28;1067;-50
2023/04/22 09:49:30;;;;;;;;;;;;;;;16.33;51.57;100744.38;5030702;28;1147;-47
2023/04/22 09:51:55;;;;;;;;;;;;;;;16.19;51.98;100735.84;5035620;28;1063;-53
2023/04/22 09:54:21;;;;;;;;;;;;;;;16.11;52.12;100741.06;5034679;28;1019;-51
2023/04/22 09:56:48;;;;;;;;;;;;;;;17.52;48.81;100742.34;5033623;28;1140;-49
2023/04/22 09:59:20;;;;;;;;;;;;;;;16.64;50.58;100738.91;5033937;28;1901;-51
2023/04/22 10:01:46;;;;;;;;;;;;;;;16.30;51.70;100742.19;5024592;28;1107;-51
2023/04/22 10:04:13;;;;;;;;;;;;;;;16.12;52.02;100740.78;5028380;28;1067;-51
2023/04/22 10:06:39;;;;;;;;;;;;;;;16.01;52.16;100744.59;5023103;28;1188;-50
2023/04/22 10:09:04;;;;;;;;;;;;;;;16.24;52.07;100737.78;5027472;28;1046;-53
2023/04/22 10:11:30;;;;;;;;;;;;;;;17.67;48.36;100735.97;5028559;28;1012;-52
2023/04/22 10:13:56;;;;;;;;;;;;;;;16.74;50.72;100736.16;5008982;28;1147;-52
2023/04/22 10:16:22;;;;;;;;;;;;;;;16.34;51.54;100734.22;5022441;28;1072;-53
2023/04/22 10:18:48;;;;;;;;;;;;;;;16.15;52.19;100745.72;5030802;28;1906;-52
2023/04/22 10:21:13;;;;;;;;;;;;;;;16.00;52.35;100741.00;5031453;28;1160;-53
2023/04/22 10:23:41;;;;;;;;;;;;;;;15.87;52.49;100741.53;5039150;28;1062;-51
2023/04/22 10:26:07;;;;;;;;;;;;;;;15.82;52.87;100739.63;5036942;28;1282;-51
2023/04/22 10:28:32;;;;;;;;;;;;;;;17.20;49.81;100724.28;5021513;28;1266;-53
2023/04/22 10:30:58;;;;;;;;;;;;;;;17.26;49.10;100727.84;5010660;28;1273;-54
2023/04/22 10:33:24;;;;;;;;;;;;;;;16.54;51.27;100739.72;5029752;28;1159;-54
2023/04/22 10:36:05;;;;;;;;;;;;;;;16.22;52.15;100726.25;5033893;28;1079;-53
2023/04/22 10:38:36;;;;;;;;;;;;;;;16.05;52.23;100735.56;5038329;28;1915;-51
2023/04/22 10:41:04;;;;;;;;;;;;;;;15.89;52.51;100733.84;5038082;28;1016;-50
2023/04/22 10:43:43;;;;;;;;;;;;;;;16.61;51.39;100733.97;5026827;28;828;-51
2023/04/22 10:46:27;;;;;;;;;;;;;;;17.20;49.44;100721.56;5005839;28;1261;-51
2023/04/22 10:48:55;;;;;;;;;;;;;;;16.44;51.41;100728.75;5021304;28;1135;-54
2023/04/22 10:51:39;;;;;;;;;;;;;;;16.18;52.05;100736.13;5027740;28;1104;-53
2023/04/22 10:54:05;;;;;;;;;;;;;;;15.96;52.56;100730.88;5036563;28;1056;-52
2023/04/22 10:56:31;;;;;;;;;;;;;;;15.81;53.00;100727.00;5025929;28;1158;-50
2023/04/22 10:58:56;;;;;;;;;;;;;;;16.49;51.69;100730.66;5016458;28;1918;-50
2023/04/22 11:01:22;;;;;;;;;;;;;;;17.00;50.18;100725.19;5020610;28;1057;-53
2023/04/22 11:03:47;;;;;;;;;;;;;;;16.29;51.74;100729.56;5033778;28;1102;-51
2023/04/22 11:06:14;;;;;;;;;;;;;;;16.08;52.29;100720.47;5028171;28;1031;-56
2023/04/22 11:08:46;;;;;;;;;;;;;;;16.20;52.44;100723.78;5035705;28;1024;-54
2023/04/22 11:11:13;;;;;;;;;;;;;;;17.66;48.62;100726.06;5026511;28;1194;-54
2023/04/22 11:13:40;;;;;;;;;;;;;;;16.74;50.66;100727.91;5031749;28;1225;-52
2023/04/22 11:16:05;;;;;;;;;;;;;;;16.34;51.78;100724.09;5030449;28;1083;-54
2023/04/22 11:18:32;;;;;;;;;;;;;;;16.13;52.22;100725.97;5022600;28;1991;-54
2023/04/22 11:21:00;;;;;;;;;;;;;;;15.97;52.64;100713.31;5035717;28;1107;-51
2023/04/22 11:23:26;;;;;;;;;;;;;;;16.01;52.74;100726.22;5035733;28;1396;-45
2023/04/22 11:25:55;;;;;;;;;;;;;;;17.49;49.19;100731.06;5037588;28;1014;-48
2023/04/22 11:28:21;;;;;;;;;;;;;;;16.64;51.03;100725.19;5036590;28;1032;-50
2023/04/22 11:30:47;;;;;;;;;;;;;;;16.26;52.06;100735.59;5024319;28;1138;-53
2023/04/22 11:33:13;;;;;;;;;;;;;;;16.74;51.07;100732.59;5011322;28;1031;-50
2023/04/22 11:35:39;;;;;;;;;;;;;;;17.12;50.05;100732.28;5038117;28;1067;-48
2023/04/22 11:38:04;;;;;;;;;;;;;;;16.46;51.77;100723.00;5036827;28;1024;-51
2023/04/22 11:40:31;;;;;;;;;;;;;;;16.18;52.33;100725.16;5024279;28;1905;-49
2023/04/22 11:42:57;;;;;;;;;;;;;;;16.06;52.79;100728.97;5017875;28;1204;-45
2023/04/22 11:45:22;;;;;;;;;;;;;;;15.95;52.74;100727.31;5017989;28;1203;-48
2023/04/22 11:47:49;;;;;;;;;;;;;;;15.81;53.06;100732.47;5017462;28;1076;-48
2023/04/22 11:50:15;;;;;;;;;;;;;;;16.99;50.44;100723.53;5017665;28;1231;-48
2023/04/22 11:52:40;;;;;;;;;;;;;;;17.01;50.11;100726.84;5017786;28;1176;-50
2023/04/22 11:55:09;;;;;;;;;;;;;;;16.35;51.92;100720.22;5017332;28;1219;-47
2023/04/22 11:57:35;;;;;;;;;;;;;;;16.13;52.69;100728.72;5018389;28;1242;-46
2023/04/22 12:00:00;;;;;;;;;;;;;;;15.91;53.02;100699.59;5029826;28;1906;-48
2023/04/22 12:02:26;;;;;;;;;;;;;;;16.83;51.23;100730.09;5017382;28;1258;-49
2023/04/22 12:04:51;;;;;;;;;;;;;;;17.06;50.32;100724.06;5012604;28;1207;-44
2023/04/22 12:07:16;;;;;;;;;;;;;;;16.41;51.82;100716.41;5009320;28;1215;-45
2023/04/22 12:09:42;;;;;;;;;;;;;;;16.13;52.73;100722.41;5017192;28;1219;-46
2023/04/22 12:12:08;;;;;;;;;;;;;;;15.95;53.18;100721.84;5017203;28;1199;-48
2023/04/22 12:14:33;;;;;;;;;;;;;;;15.90;53.13;100724.53;5017521;28;1289;-47
2023/04/22 12:17:04;;;;;;;;;;;;;;;17.14;50.42;100719.09;5017083;28;1135;-48
2023/04/22 12:19:30;;;;;;;;;;;;;;;16.94;50.61;100726.28;5016771;28;1902;-48
2023/04/22 12:21:56;;;;;;;;;;;;;;;16.36;52.34;100713.66;5025926;28;1298;-45
2023/04/22 12:24:26;;;;;;;;;;;;;;;16.11;52.76;100719.13;5018738;28;1304;-45
2023/04/22 12:26:51;;;;;;;;;;;;;;;15.94;53.32;100725.66;5028359;28;1133;-48
2023/04/22 12:29:24;;;;;;;;;;;;;;;16.81;51.17;100726.81;5023227;28;1019;-47
2023/04/22 12:31:50;;;;;;;;;;;;;;;17.10;50.08;100719.66;5023320;28;1053;-43
2023/04/22 12:34:15;;;;;;;;;;;;;;;16.45;52.24;100724.91;5036698;28;1066;-50
2023/04/22 12:36:41;;;;;;;;;;;;;;;16.19;52.62;100719.41;5023492;28;1193;-48
2023/04/22 12:39:06;;;;;;;;;;;;;;;15.99;53.07;100728.41;5036194;28;1894;-46
2023/04/22 12:41:32;;;;;;;;;;;;;;;16.95;51.08;100729.88;5023130;28;1135;-50
2023/04/22 12:43:57;;;;;;;;;;;;;;;17.28;50.04;100733.91;5028076;28;974;-56
2023/04/22 12:46:23;;;;;;;;;;;;;;;16.60;51.91;100726.81;5029442;28;1163;-49